createdAt,value
2017-12-31T00:00:18.872Z,11.1
2017-12-31T00:02:19.582Z,5.3
2017-12-31T00:04:19.311Z,11.8
2017-12-31T00:06:19.103Z,3.1
2017-12-31T00:08:18.833Z,1.3
2017-12-31T00:10:19.081Z,5
2017-12-31T00:12:18.730Z,12.4
2017-12-31T00:14:19.472Z,10.2
2017-12-31T00:16:19.625Z,9.6
2017-12-31T00:18:19.448Z,5.7
2017-12-31T00:20:19.191Z,6.4
2017-12-31T00:22:18.960Z,4.5
2017-12-31T00:24:18.717Z,3.9
2017-12-31T00:26:18.953Z,2.5
2017-12-31T00:28:18.706Z,5.5
2017-12-31T00:30:19.458Z,12.7
2017-12-31T00:32:19.228Z,3.3
2017-12-31T00:34:18.979Z,7.9
2017-12-31T00:36:19.514Z,6.8
2017-12-31T00:38:19.259Z,8.7
2017-12-31T00:40:19.513Z,6.6
2017-12-31T00:42:19.272Z,2.7
2017-12-31T00:44:19.013Z,3
2017-12-31T00:46:18.721Z,3.3
2017-12-31T00:48:19.476Z,4.9
2017-12-31T00:50:19.268Z,4.8
2017-12-31T00:52:18.993Z,4.1
2017-12-31T00:54:18.787Z,2.3
2017-12-31T00:56:19.377Z,9.5
2017-12-31T00:58:19.085Z,4
2017-12-31T01:00:18.836Z,3.8
2017-12-31T01:02:19.603Z,7.8
2017-12-31T01:04:19.361Z,5.8
2017-12-31T01:06:18.878Z,3.4
2017-12-31T01:08:19.631Z,3.7
2017-12-31T01:10:18.848Z,6
2017-12-31T01:12:19.314Z,7.9
2017-12-31T01:14:19.074Z,5.7
2017-12-31T01:16:19.204Z,12
2017-12-31T01:18:19.067Z,6.7
2017-12-31T01:20:18.837Z,3.7
2017-12-31T01:22:19.620Z,7.4
2017-12-31T01:24:19.390Z,4.2
2017-12-31T01:26:19.448Z,6.4
2017-12-31T01:28:19.202Z,1.9
2017-12-31T01:30:19.024Z,4
2017-12-31T01:32:18.779Z,3
2017-12-31T01:34:19.545Z,6.7
2017-12-31T01:36:19.194Z,8.9
2017-12-31T01:38:18.969Z,7.1
2017-12-31T01:40:19.208Z,7
2017-12-31T01:42:18.948Z,8.1
2017-12-31T01:44:18.677Z,6.8
2017-12-31T01:46:18.745Z,1.8
2017-12-31T01:48:19.512Z,5.8
2017-12-31T01:50:19.371Z,6.3
2017-12-31T01:52:18.753Z,9.3
2017-12-31T01:54:19.547Z,8.4
2017-12-31T01:56:19.179Z,8.3
2017-12-31T01:58:18.902Z,9.3
2017-12-31T02:00:19.606Z,9.7
2017-12-31T02:02:19.378Z,8
2017-12-31T02:04:19.086Z,10.2
2017-12-31T02:06:19.478Z,8.4
2017-12-31T02:08:19.220Z,10.8
2017-12-31T02:10:19.428Z,11.8
2017-12-31T02:12:19.149Z,4.9
2017-12-31T02:14:18.907Z,7.4
2017-12-31T02:16:19.320Z,5.3
2017-12-31T02:18:19.127Z,10.3
2017-12-31T02:20:18.858Z,11.8
2017-12-31T02:22:19.584Z,6.6
2017-12-31T02:24:19.350Z,13.7
2017-12-31T02:26:19.504Z,6
2017-12-31T02:28:19.260Z,15
2017-12-31T02:30:19.023Z,1.5
2017-12-31T02:32:19.581Z,4.1
2017-12-31T02:34:19.311Z,4.4
2017-12-31T02:36:18.853Z,6.3
2017-12-31T02:38:19.591Z,5.6
2017-12-31T02:40:18.889Z,15.1
2017-12-31T02:42:19.642Z,9.4
2017-12-31T02:44:19.363Z,4.5
2017-12-31T02:46:18.745Z,10.9
2017-12-31T02:48:19.534Z,2.3
2017-12-31T02:50:19.287Z,7.7
2017-12-31T02:52:18.954Z,3.4
2017-12-31T02:54:18.716Z,12.8
2017-12-31T02:56:19.370Z,6.5
2017-12-31T02:58:19.125Z,13.2
2017-12-31T03:00:18.910Z,3.3
2017-12-31T03:02:19.617Z,2.9
2017-12-31T03:04:19.384Z,8
2017-12-31T03:06:19.472Z,14.1
2017-12-31T03:08:19.194Z,20.9
2017-12-31T03:10:19.394Z,14.1
2017-12-31T03:12:19.144Z,8.5
2017-12-31T03:14:18.866Z,6.6
2017-12-31T03:16:19.506Z,3.6
2017-12-31T03:18:19.437Z,8.7
2017-12-31T03:20:19.207Z,5.5
2017-12-31T03:22:18.983Z,9.3
2017-12-31T03:24:18.719Z,4.1
2017-12-31T03:26:18.731Z,11.2
2017-12-31T03:28:19.498Z,4.3
2017-12-31T03:30:19.428Z,24.2
2017-12-31T03:32:18.759Z,4.5
2017-12-31T03:34:19.490Z,21.1
2017-12-31T03:36:18.871Z,11.5
2017-12-31T03:38:19.603Z,7.5
2017-12-31T03:40:18.848Z,11.9
2017-12-31T03:42:19.474Z,7
2017-12-31T03:44:19.234Z,9.2
2017-12-31T03:46:18.808Z,5
2017-12-31T03:48:19.571Z,14.1
2017-12-31T03:50:19.301Z,5
2017-12-31T03:52:18.962Z,6.9
2017-12-31T03:54:18.706Z,15.6
2017-12-31T03:56:18.934Z,15.6
2017-12-31T03:58:19.683Z,21.1
2017-12-31T04:00:19.503Z,10.1
2017-12-31T04:02:19.307Z,11.6
2017-12-31T04:04:19.090Z,24.1
2017-12-31T04:06:18.919Z,12.7
2017-12-31T04:08:19.659Z,7.1
2017-12-31T04:10:18.894Z,8.6
2017-12-31T04:12:19.624Z,9.9
2017-12-31T04:14:19.382Z,12.5
2017-12-31T04:16:18.905Z,8
2017-12-31T04:18:18.697Z,14.3
2017-12-31T04:20:19.516Z,5
2017-12-31T04:22:19.233Z,7.3
2017-12-31T04:24:18.954Z,6.5
2017-12-31T04:26:19.628Z,16.4
2017-12-31T04:28:19.388Z,4.1
2017-12-31T04:30:19.216Z,5.2
2017-12-31T04:32:19.006Z,9.1
2017-12-31T04:34:18.748Z,6.6
2017-12-31T04:36:18.720Z,10
2017-12-31T04:38:19.489Z,13.2
2017-12-31T04:40:18.696Z,6
2017-12-31T04:42:19.259Z,15.9
2017-12-31T04:44:19.004Z,22.5
2017-12-31T04:46:19.548Z,10
2017-12-31T04:48:19.313Z,8.4
2017-12-31T04:50:19.079Z,5.2
2017-12-31T04:52:18.826Z,10.7
2017-12-31T04:54:19.568Z,8.8
2017-12-31T04:56:19.007Z,6.3
2017-12-31T04:58:18.779Z,22.7
2017-12-31T05:00:19.609Z,6.6
2017-12-31T05:02:19.392Z,10.6
2017-12-31T05:04:19.166Z,6.4
2017-12-31T05:06:19.557Z,10.8
2017-12-31T05:08:19.305Z,22.8
2017-12-31T05:10:19.552Z,15.8
2017-12-31T05:12:19.299Z,15.8
2017-12-31T05:14:19.059Z,9.8
2017-12-31T05:16:19.464Z,7
2017-12-31T05:18:19.254Z,7.1
2017-12-31T05:20:19.006Z,13.6
2017-12-31T05:22:18.717Z,2.3
2017-12-31T05:24:19.472Z,8.9
2017-12-31T05:26:18.907Z,17.8
2017-12-31T05:28:19.615Z,2.8
2017-12-31T05:30:19.352Z,5.3
2017-12-31T05:32:19.105Z,4.9
2017-12-31T05:34:18.846Z,8.2
2017-12-31T05:36:19.167Z,14.4
2017-12-31T05:38:18.923Z,14.1
2017-12-31T05:40:19.125Z,6
2017-12-31T05:42:18.840Z,13
2017-12-31T05:44:19.572Z,3
2017-12-31T05:46:19.550Z,15.5
2017-12-31T05:48:19.287Z,4.7
2017-12-31T05:50:19.124Z,11
2017-12-31T05:52:19.558Z,16.8
2017-12-31T05:54:19.299Z,8.3
2017-12-31T05:56:19.378Z,8.6
2017-12-31T05:58:19.108Z,12.9
2017-12-31T06:00:18.881Z,12.7
2017-12-31T06:02:19.500Z,19.5
2017-12-31T06:04:19.232Z,11.5
2017-12-31T06:06:19.313Z,12
2017-12-31T06:08:19.072Z,5.5
2017-12-31T06:10:19.374Z,20.6
2017-12-31T06:12:19.110Z,9.3
2017-12-31T06:14:18.850Z,12.8
2017-12-31T06:16:18.894Z,8.6
2017-12-31T06:18:18.744Z,9
2017-12-31T06:20:19.568Z,5.3
2017-12-31T06:22:19.282Z,21.7
2017-12-31T06:24:19.050Z,10.1
2017-12-31T06:26:19.400Z,5.9
2017-12-31T06:28:19.178Z,5.4
2017-12-31T06:30:19.124Z,12.4
2017-12-31T06:32:18.885Z,8.2
2017-12-31T06:34:19.615Z,12.6
2017-12-31T06:36:19.629Z,7.1
2017-12-31T06:38:19.380Z,8.2
2017-12-31T06:40:19.606Z,3.5
2017-12-31T06:42:19.360Z,7.8
2017-12-31T06:44:19.073Z,13.2
2017-12-31T06:46:18.714Z,15.9
2017-12-31T06:48:18.949Z,13.9
2017-12-31T06:50:18.723Z,16.4
2017-12-31T06:52:19.446Z,19.7
2017-12-31T06:54:19.184Z,12.8
2017-12-31T06:56:18.780Z,8.4
2017-12-31T06:58:19.513Z,18.2
2017-12-31T07:00:19.233Z,10
2017-12-31T07:02:18.962Z,11.2
2017-12-31T07:04:18.696Z,9.6
2017-12-31T07:06:19.516Z,13.8
2017-12-31T07:08:19.281Z,3.2
2017-12-31T07:10:19.529Z,20.1
2017-12-31T07:12:19.184Z,14.4
2017-12-31T07:14:18.909Z,14.9
2017-12-31T07:16:19.448Z,8.2
2017-12-31T07:18:19.281Z,13.4
2017-12-31T07:20:19.015Z,5.5
2017-12-31T07:22:18.730Z,8.3
2017-12-31T07:24:19.479Z,11.8
2017-12-31T07:26:19.278Z,8.6
2017-12-31T07:28:19.052Z,11.4
2017-12-31T07:30:18.791Z,12.9
2017-12-31T07:32:19.522Z,7.3
2017-12-31T07:34:19.291Z,14.3
2017-12-31T07:36:19.664Z,14.9
2017-12-31T07:38:19.398Z,6
2017-12-31T07:40:19.660Z,17.7
2017-12-31T07:42:19.420Z,10.6
2017-12-31T07:44:19.152Z,18.5
2017-12-31T07:46:18.711Z,10.1
2017-12-31T07:48:19.456Z,10.8
2017-12-31T07:50:19.189Z,17.8
2017-12-31T07:52:18.924Z,14.5
2017-12-31T07:54:19.707Z,17
2017-12-31T07:56:19.474Z,18.5
2017-12-31T07:58:19.235Z,12.7
2017-12-31T08:00:18.989Z,14.1
2017-12-31T08:02:18.735Z,12
2017-12-31T08:04:19.504Z,5.6
2017-12-31T08:06:19.002Z,17.7
2017-12-31T08:08:18.722Z,6.8
2017-12-31T08:10:18.985Z,12.7
2017-12-31T08:12:18.752Z,11.7
2017-12-31T08:14:19.513Z,18
2017-12-31T08:16:18.920Z,9
2017-12-31T08:18:18.722Z,7.4
2017-12-31T08:20:19.517Z,14.7
2017-12-31T08:22:19.168Z,11.3
2017-12-31T08:24:18.964Z,11.4
2017-12-31T08:26:19.004Z,17.4
2017-12-31T08:28:18.758Z,8.5
2017-12-31T08:30:19.484Z,9.6
2017-12-31T08:32:19.213Z,11.8
2017-12-31T08:34:18.994Z,11.5
2017-12-31T08:36:19.275Z,8.2
2017-12-31T08:38:19.064Z,11.8
2017-12-31T08:40:19.292Z,11.7
2017-12-31T08:42:19.080Z,12.2
2017-12-31T08:44:18.840Z,9.6
2017-12-31T08:46:18.978Z,9.2
2017-12-31T08:48:18.704Z,20.1
2017-12-31T08:50:19.476Z,12.9
2017-12-31T08:52:19.209Z,5.6
2017-12-31T08:54:18.981Z,12.7
2017-12-31T08:56:19.574Z,19.7
2017-12-31T08:58:19.323Z,11.9
2017-12-31T09:00:19.138Z,26.3
2017-12-31T09:02:18.728Z,8
2017-12-31T09:04:19.471Z,23
2017-12-31T09:06:18.932Z,14.2
2017-12-31T09:08:18.705Z,10.6
2017-12-31T09:10:18.959Z,10.7
2017-12-31T09:12:18.742Z,13.6
2017-12-31T09:14:19.514Z,10.8
2017-12-31T09:16:19.262Z,18.5
2017-12-31T09:18:19.147Z,18
2017-12-31T09:20:18.935Z,16.1
2017-12-31T09:22:18.712Z,17.6
2017-12-31T09:24:19.469Z,15.3
2017-12-31T09:26:18.914Z,16.8
2017-12-31T09:28:19.690Z,11.2
2017-12-31T09:30:19.587Z,7.3
2017-12-31T09:32:19.105Z,16.9
2017-12-31T09:34:18.861Z,19.3
2017-12-31T09:36:19.618Z,16.6
2017-12-31T09:38:19.373Z,12.9
2017-12-31T09:40:19.635Z,16.4
2017-12-31T09:42:19.116Z,16.6
2017-12-31T09:44:18.883Z,9.4
2017-12-31T09:46:19.087Z,11.4
2017-12-31T09:48:18.862Z,6.8
2017-12-31T09:50:19.595Z,12.2
2017-12-31T09:52:19.343Z,9.3
2017-12-31T09:54:19.091Z,14.3
2017-12-31T09:56:19.259Z,8.8
2017-12-31T09:58:19.031Z,4.9
2017-12-31T10:00:18.822Z,9.2
2017-12-31T10:02:18.904Z,7.9
2017-12-31T10:04:19.683Z,12.3
2017-12-31T10:06:19.141Z,5.6
2017-12-31T10:08:18.934Z,13.3
2017-12-31T10:10:19.164Z,9.8
2017-12-31T10:12:18.906Z,6.2
2017-12-31T10:14:19.709Z,11.6
2017-12-31T10:16:19.134Z,9.4
2017-12-31T10:18:18.936Z,9.4
2017-12-31T10:20:18.673Z,10.9
2017-12-31T10:22:19.405Z,14.6
2017-12-31T10:24:19.131Z,12.4
2017-12-31T10:26:18.954Z,12.6
2017-12-31T10:28:18.689Z,7.4
2017-12-31T10:30:19.526Z,6
2017-12-31T10:32:19.265Z,7.7
2017-12-31T10:34:19.005Z,7.7
2017-12-31T10:36:19.604Z,5.5
2017-12-31T10:38:19.350Z,7.1
2017-12-31T10:40:19.578Z,3.5
2017-12-31T10:42:19.675Z,11.9
2017-12-31T10:44:19.428Z,5.6
2017-12-31T10:46:19.273Z,5.7
2017-12-31T10:48:19.023Z,8.1
2017-12-31T10:50:18.778Z,4.3
2017-12-31T10:52:19.553Z,8.3
2017-12-31T10:54:19.301Z,7.3
2017-12-31T10:56:19.354Z,3.9
2017-12-31T10:58:19.075Z,8.1
2017-12-31T11:00:18.851Z,4.5
2017-12-31T11:02:19.470Z,4.8
2017-12-31T11:04:19.222Z,8.2
2017-12-31T11:06:19.186Z,4.5
2017-12-31T11:08:18.973Z,4.8
2017-12-31T11:10:19.367Z,3.4
2017-12-31T11:12:19.365Z,4.5
2017-12-31T11:14:19.090Z,1.7
2017-12-31T11:16:19.309Z,5.6
2017-12-31T11:18:19.117Z,4.5
2017-12-31T11:20:18.974Z,2.1
2017-12-31T11:22:18.756Z,3.1
2017-12-31T11:24:19.533Z,2
2017-12-31T11:26:18.750Z,5.2
2017-12-31T11:28:19.519Z,13
2017-12-31T11:30:19.255Z,4.9
2017-12-31T11:32:18.929Z,2.2
2017-12-31T11:34:19.713Z,1.6
2017-12-31T11:36:19.351Z,3.5
2017-12-31T11:38:19.083Z,8.4
2017-12-31T11:40:19.357Z,2.7
2017-12-31T11:42:18.888Z,5.5
2017-12-31T11:44:19.629Z,2.3
2017-12-31T11:46:19.072Z,1.7
2017-12-31T11:48:18.812Z,3.4
2017-12-31T11:50:19.649Z,3.2
2017-12-31T11:52:19.390Z,5.8
2017-12-31T11:54:19.128Z,7.9
2017-12-31T11:56:18.835Z,2.1
2017-12-31T11:58:19.657Z,0.8
2017-12-31T12:00:19.409Z,8
2017-12-31T12:02:19.179Z,5.6
2017-12-31T12:04:18.946Z,1.8
2017-12-31T12:06:18.992Z,3.8
2017-12-31T12:08:18.725Z,4.5
2017-12-31T12:10:19.126Z,11.6
2017-12-31T12:12:18.915Z,2.5
2017-12-31T12:14:19.669Z,2.2
2017-12-31T12:16:18.776Z,3.8
2017-12-31T12:18:19.633Z,2.8
2017-12-31T12:20:19.473Z,3.7
2017-12-31T12:22:19.513Z,0.5
2017-12-31T12:24:19.267Z,4
2017-12-31T12:26:19.720Z,5.1
2017-12-31T12:28:19.519Z,6.4
2017-12-31T12:30:19.283Z,3.5
2017-12-31T12:32:19.110Z,1.9
2017-12-31T12:34:18.860Z,0.8
2017-12-31T12:36:19.287Z,2.8
2017-12-31T12:38:19.029Z,3.2
2017-12-31T12:40:19.253Z,12
2017-12-31T12:42:19.008Z,4.9
2017-12-31T12:44:18.798Z,4.7
2017-12-31T12:46:19.325Z,3.2
2017-12-31T12:48:19.131Z,11.3
2017-12-31T12:50:18.883Z,3.6
2017-12-31T12:52:19.611Z,3.7
2017-12-31T12:54:19.391Z,2.7
2017-12-31T12:56:18.715Z,0.8
2017-12-31T12:58:19.471Z,2.8
2017-12-31T13:00:19.210Z,6.7
2017-12-31T13:02:18.969Z,9.1
2017-12-31T13:04:18.712Z,5.2
2017-12-31T13:06:19.587Z,2.9
2017-12-31T13:08:19.359Z,3
2017-12-31T13:10:19.573Z,3.5
2017-12-31T13:12:19.361Z,8
2017-12-31T13:14:19.105Z,3.5
2017-12-31T13:16:19.588Z,2.8
2017-12-31T13:18:19.432Z,4.4
2017-12-31T13:20:19.191Z,1.3
2017-12-31T13:22:18.971Z,6
2017-12-31T13:24:18.756Z,6.9
2017-12-31T13:26:19.155Z,4.5
2017-12-31T13:28:18.882Z,3.9
2017-12-31T13:30:19.662Z,1.1
2017-12-31T13:32:19.349Z,4.1
2017-12-31T13:34:19.110Z,4.6
2017-12-31T13:36:19.696Z,7.5
2017-12-31T13:38:19.436Z,1.3
2017-12-31T13:40:19.655Z,4.5
2017-12-31T13:42:19.401Z,2.5
2017-12-31T13:44:19.161Z,2.6
2017-12-31T13:46:18.774Z,5.5
2017-12-31T13:48:19.564Z,4.1
2017-12-31T13:50:19.317Z,5.5
2017-12-31T13:52:19.106Z,2
2017-12-31T13:54:18.864Z,7.2
2017-12-31T13:56:19.255Z,2.9
2017-12-31T13:58:19.100Z,4
2017-12-31T14:00:18.850Z,8.1
2017-12-31T14:02:19.595Z,1.6
2017-12-31T14:04:19.361Z,1.1
2017-12-31T14:06:18.932Z,9.1
2017-12-31T14:08:18.688Z,4.1
2017-12-31T14:10:18.901Z,3.5
2017-12-31T14:12:19.642Z,1.4
2017-12-31T14:14:19.396Z,0.4
2017-12-31T14:16:18.933Z,8.1
2017-12-31T14:18:18.763Z,13.2
2017-12-31T14:20:19.536Z,5.5
2017-12-31T14:22:19.316Z,7.2
2017-12-31T14:24:19.072Z,0.9
2017-12-31T14:26:19.269Z,5.2
2017-12-31T14:28:19.030Z,6.9
2017-12-31T14:30:18.816Z,3.1
2017-12-31T14:32:19.590Z,6
2017-12-31T14:34:19.368Z,3.5
2017-12-31T14:36:18.821Z,2.9
2017-12-31T14:38:19.578Z,3.4
2017-12-31T14:40:18.896Z,3.1
2017-12-31T14:42:19.654Z,8.5
2017-12-31T14:44:19.392Z,4.9
2017-12-31T14:46:19.645Z,7.1
2017-12-31T14:48:19.428Z,3.3
2017-12-31T14:50:19.222Z,4
2017-12-31T14:52:19.028Z,4.9
2017-12-31T14:54:18.801Z,5.2
2017-12-31T14:56:19.335Z,7.5
2017-12-31T14:58:19.087Z,4.1
2017-12-31T15:00:18.832Z,1.8
2017-12-31T15:02:19.575Z,3.5
2017-12-31T15:04:19.326Z,2.1
2017-12-31T15:06:18.892Z,6.9
2017-12-31T15:08:19.661Z,0.8
2017-12-31T15:10:18.924Z,1.6
2017-12-31T15:12:18.721Z,5
2017-12-31T15:14:19.532Z,4.5
2017-12-31T15:16:19.110Z,6
2017-12-31T15:18:18.944Z,2.4
2017-12-31T15:20:18.705Z,1.9
2017-12-31T15:22:19.450Z,3.6
2017-12-31T15:24:19.242Z,4.3
2017-12-31T15:26:18.921Z,2
2017-12-31T15:28:19.672Z,3.8
2017-12-31T15:30:19.484Z,5.3
2017-12-31T15:32:19.063Z,5.9
2017-12-31T15:34:18.805Z,4.1
2017-12-31T15:36:19.218Z,4.8
2017-12-31T15:38:18.962Z,3.4
2017-12-31T15:40:19.213Z,4.9
2017-12-31T15:42:19.325Z,7.1
2017-12-31T15:44:19.095Z,4.5
2017-12-31T15:46:19.664Z,0.4
2017-12-31T15:48:19.422Z,6.1
2017-12-31T15:50:19.179Z,5.1
2017-12-31T15:52:18.976Z,5.5
2017-12-31T15:54:18.743Z,0.9
2017-12-31T15:56:19.493Z,2.9
2017-12-31T15:58:19.327Z,4.1
2017-12-31T16:00:19.088Z,14.4
2017-12-31T16:02:18.842Z,9.2
2017-12-31T16:04:19.637Z,3
2017-12-31T16:06:19.229Z,1.7
2017-12-31T16:08:19.009Z,5.2
2017-12-31T16:10:19.297Z,6.8
2017-12-31T16:12:19.300Z,5.4
2017-12-31T16:14:19.064Z,2.7
2017-12-31T16:16:19.159Z,4.6
2017-12-31T16:18:18.986Z,8.3
2017-12-31T16:20:18.801Z,4.3
2017-12-31T16:22:19.404Z,2.3
2017-12-31T16:24:19.149Z,2.5
2017-12-31T16:26:19.291Z,3.4
2017-12-31T16:28:19.089Z,2.7
2017-12-31T16:30:18.839Z,4.1
2017-12-31T16:32:19.605Z,0.9
2017-12-31T16:34:19.364Z,1.8
2017-12-31T16:36:19.490Z,1
2017-12-31T16:38:19.286Z,2.4
2017-12-31T16:40:19.494Z,3.6
2017-12-31T16:42:19.111Z,2
2017-12-31T16:44:18.933Z,3.2
2017-12-31T16:46:19.194Z,2
2017-12-31T16:48:18.930Z,1.3
2017-12-31T16:50:18.794Z,3.3
2017-12-31T16:52:19.545Z,2.1
2017-12-31T16:54:19.301Z,1.3
2017-12-31T16:56:19.331Z,8.8
2017-12-31T16:58:19.061Z,1.7
2017-12-31T17:00:18.837Z,1.2
2017-12-31T17:02:19.599Z,2.7
2017-12-31T17:04:19.345Z,0.7
2017-12-31T17:06:18.782Z,4.1
2017-12-31T17:08:19.553Z,1.6
2017-12-31T17:10:18.772Z,7.6
2017-12-31T17:12:19.546Z,1.3
2017-12-31T17:14:19.297Z,0.5
2017-12-31T17:16:18.872Z,3.3
2017-12-31T17:18:18.725Z,0.6
2017-12-31T17:20:19.484Z,7.6
2017-12-31T17:22:19.286Z,0.7
2017-12-31T17:24:19.033Z,4.8
2017-12-31T17:26:19.184Z,0.3
2017-12-31T17:28:18.920Z,6.5
2017-12-31T17:30:19.698Z,1.9
2017-12-31T17:32:19.401Z,4.3
2017-12-31T17:34:19.161Z,0.4
2017-12-31T17:36:19.601Z,0.6
2017-12-31T17:38:19.340Z,5
2017-12-31T17:40:19.585Z,1.8
2017-12-31T17:42:19.378Z,1
2017-12-31T17:44:19.186Z,0.7
2017-12-31T17:46:19.424Z,2.5
2017-12-31T17:48:19.175Z,6.6
2017-12-31T17:50:18.934Z,1.6
2017-12-31T17:52:19.066Z,3.2
2017-12-31T17:54:18.855Z,5.7
2017-12-31T17:56:19.444Z,14.6
2017-12-31T17:58:19.190Z,2.4
2017-12-31T18:00:19.018Z,1.1
2017-12-31T18:02:18.808Z,6.4
2017-12-31T18:04:19.582Z,2.5
2017-12-31T18:06:19.121Z,2.3
2017-12-31T18:08:18.864Z,4.7
2017-12-31T18:10:19.087Z,6.9
2017-12-31T18:12:18.839Z,8.4
2017-12-31T18:14:19.600Z,3.5
2017-12-31T18:16:19.017Z,3.3
2017-12-31T18:18:18.854Z,6.7
2017-12-31T18:20:19.629Z,14.3
2017-12-31T18:22:19.399Z,3.6
2017-12-31T18:24:19.148Z,3.7
2017-12-31T18:26:19.678Z,2.5
2017-12-31T18:28:19.436Z,5.2
2017-12-31T18:30:19.171Z,2.6
2017-12-31T18:32:18.924Z,6.1
2017-12-31T18:34:19.736Z,0.9
2017-12-31T18:36:19.210Z,2.2
2017-12-31T18:38:19.016Z,0.7
2017-12-31T18:40:19.345Z,1.5
2017-12-31T18:42:19.121Z,1.6
2017-12-31T18:44:18.875Z,3.6
2017-12-31T18:46:19.160Z,10.4
2017-12-31T18:48:18.922Z,42.7
2017-12-31T18:50:18.722Z,4.2
2017-12-31T18:52:19.525Z,33.1
2017-12-31T18:54:19.307Z,8.5
2017-12-31T18:56:18.906Z,5.5
2017-12-31T18:58:19.682Z,4.9
2017-12-31T19:00:19.479Z,3.3
2017-12-31T19:02:19.225Z,3
2017-12-31T19:04:19.003Z,2.8
2017-12-31T19:06:19.565Z,4.2
2017-12-31T19:08:19.329Z,5.3
2017-12-31T19:10:19.557Z,6.3
2017-12-31T19:12:19.331Z,3.6
2017-12-31T19:14:19.088Z,4
2017-12-31T19:16:18.985Z,6.7
2017-12-31T19:18:18.799Z,6.4
2017-12-31T19:20:19.542Z,6
2017-12-31T19:22:19.302Z,2.5
2017-12-31T19:24:19.059Z,4.2
2017-12-31T19:26:19.265Z,4
2017-12-31T19:28:19.046Z,6
2017-12-31T19:30:18.842Z,9.2
2017-12-31T19:32:19.580Z,7
2017-12-31T19:34:19.365Z,7.6
2017-12-31T19:36:19.442Z,9.1
2017-12-31T19:38:19.221Z,8.9
2017-12-31T19:40:19.500Z,2.1
2017-12-31T19:42:19.084Z,0.9
2017-12-31T19:44:18.819Z,3.4
2017-12-31T19:46:18.958Z,4.4
2017-12-31T19:48:18.745Z,4.4
2017-12-31T19:50:19.908Z,1.9
2017-12-31T19:52:19.656Z,5.9
2017-12-31T19:54:19.410Z,2.9
2017-12-31T19:56:19.680Z,4.6
2017-12-31T19:58:19.462Z,3.5
2017-12-31T20:00:19.237Z,8.6
2017-12-31T20:02:19.344Z,2.4
2017-12-31T20:04:19.109Z,4.7
2017-12-31T20:06:19.212Z,3.6
2017-12-31T20:08:18.976Z,5.9
2017-12-31T20:10:19.223Z,3.6
2017-12-31T20:12:19.015Z,2.5
2017-12-31T20:14:18.764Z,2.7
2017-12-31T20:16:19.516Z,11.4
2017-12-31T20:18:19.392Z,2
2017-12-31T20:20:19.157Z,3.6
2017-12-31T20:22:18.910Z,4
2017-12-31T20:24:19.685Z,6.3
2017-12-31T20:26:18.923Z,8
2017-12-31T20:28:19.683Z,9.1
2017-12-31T20:30:19.450Z,6.6
2017-12-31T20:32:19.183Z,2.7
2017-12-31T20:34:18.957Z,22.9
2017-12-31T20:36:19.497Z,10.3
2017-12-31T20:38:19.302Z,6
2017-12-31T20:40:19.527Z,1.5
2017-12-31T20:42:19.320Z,1.7
2017-12-31T20:44:19.100Z,4
2017-12-31T20:46:19.541Z,4.5
2017-12-31T20:48:19.345Z,3.9
2017-12-31T20:50:19.137Z,5.1
2017-12-31T20:52:18.782Z,2.6
2017-12-31T20:54:19.572Z,5.1
2017-12-31T20:56:18.888Z,7.8
2017-12-31T20:58:19.682Z,7.8
2017-12-31T21:00:19.490Z,3
2017-12-31T21:02:19.139Z,4.3
2017-12-31T21:04:18.903Z,2.7
2017-12-31T21:06:19.664Z,3.6
2017-12-31T21:08:19.449Z,11.4
2017-12-31T21:10:19.720Z,8.2
2017-12-31T21:12:19.391Z,7
2017-12-31T21:14:19.150Z,13.5
2017-12-31T21:16:19.118Z,5.3
2017-12-31T21:18:18.998Z,7.9
2017-12-31T21:20:18.782Z,33.3
2017-12-31T21:22:19.541Z,8.6
2017-12-31T21:24:19.317Z,3.2
2017-12-31T21:26:19.638Z,2.4
2017-12-31T21:28:19.412Z,1.5
2017-12-31T21:30:19.336Z,1.7
2017-12-31T21:32:19.069Z,5.6
2017-12-31T21:34:18.868Z,3.2
2017-12-31T21:36:19.072Z,7.9
2017-12-31T21:38:18.843Z,10.4
2017-12-31T21:40:19.101Z,3.5
2017-12-31T21:42:18.863Z,3.6
2017-12-31T21:44:19.637Z,7.9
2017-12-31T21:46:18.700Z,5.2
2017-12-31T21:48:19.447Z,2.5
2017-12-31T21:50:19.183Z,2.7
2017-12-31T21:52:18.885Z,4.4
2017-12-31T21:54:19.629Z,1
2017-12-31T21:56:19.243Z,3.3
2017-12-31T21:58:18.998Z,5.5
2017-12-31T22:00:18.743Z,1
2017-12-31T22:02:19.489Z,5.4
2017-12-31T22:04:19.298Z,2
2017-12-31T22:06:18.728Z,2.9
2017-12-31T22:08:19.487Z,5.6
2017-12-31T22:10:18.744Z,4.5
2017-12-31T22:12:19.497Z,3
2017-12-31T22:14:19.268Z,6.1
2017-12-31T22:16:19.380Z,1.3
2017-12-31T22:18:19.198Z,1.6
2017-12-31T22:20:18.985Z,7.5
2017-12-31T22:22:18.758Z,5.2
2017-12-31T22:24:19.501Z,2.1
2017-12-31T22:26:18.848Z,2.4
2017-12-31T22:28:19.600Z,0.8
2017-12-31T22:30:19.367Z,8.5
2017-12-31T22:32:19.150Z,1.8
2017-12-31T22:34:18.907Z,2.7
2017-12-31T22:36:19.443Z,2.6
2017-12-31T22:38:19.222Z,13.7
2017-12-31T22:40:19.432Z,12.2
2017-12-31T22:42:19.666Z,2.2
2017-12-31T22:44:19.459Z,3.5
2017-12-31T22:46:19.275Z,1.5
2017-12-31T22:48:19.042Z,5.9
2017-12-31T22:50:18.867Z,6.1
2017-12-31T22:52:18.938Z,3.4
2017-12-31T22:54:18.711Z,1.2
2017-12-31T22:56:18.894Z,6
2017-12-31T22:58:19.664Z,1.2
2017-12-31T23:00:19.486Z,1.6
2017-12-31T23:02:19.262Z,6.5
2017-12-31T23:04:19.045Z,33.6
2017-12-31T23:06:18.717Z,64
2017-12-31T23:08:19.466Z,36.6
2017-12-31T23:10:18.684Z,16.1
2017-12-31T23:12:19.451Z,27.5
2017-12-31T23:14:19.253Z,51.6
2017-12-31T23:16:19.401Z,57.1
2017-12-31T23:18:19.226Z,85.9
2017-12-31T23:20:18.981Z,50.4
2017-12-31T23:22:19.631Z,76
2017-12-31T23:24:19.356Z,72.1
2017-12-31T23:26:18.801Z,53.7
2017-12-31T23:28:19.567Z,52.1
2017-12-31T23:30:19.307Z,65.5
2017-12-31T23:32:19.101Z,28.7
2017-12-31T23:34:18.888Z,51.7
2017-12-31T23:36:19.298Z,61.7
2017-12-31T23:38:19.096Z,22.2
2017-12-31T23:40:19.324Z,19
2017-12-31T23:42:19.054Z,29.4
2017-12-31T23:44:18.834Z,23.4
2017-12-31T23:46:19.188Z,15.9
2017-12-31T23:48:19.026Z,22
2017-12-31T23:50:18.925Z,28.3
2017-12-31T23:52:19.697Z,13.5
2017-12-31T23:54:19.450Z,16.6
2017-12-31T23:56:18.754Z,11
2017-12-31T23:58:19.504Z,23.1
